Terminal Aerodrome Forecast
Issued by NWS

Home | Current Version | Previous Version | Text Only | Print | Product List | Glossary On
Versions: 1 2 3 4 5 6 7 8 9 10 11 12 13 14 15 16 17 18 19 20 21 22 23 24 25 26 27 28
457
FTUS43 KGRB 062129 AAB
TAFATW
TAF AMD
KATW 062129Z 0621/0718 23011G20KT P6SM BKN014
      TEMPO 0622/0701 SCT024
     FM070100 25013G21KT P6SM BKN024
     FM071400 25013G23KT P6SM BKN040=

USA.gov is the U.S. government's official web portal to all federal, state and local government web resources and services.